createdAt,value
2018-04-01T00:00:27.440Z,12.32
2018-04-01T00:02:01.885Z,12.38
2018-04-01T00:03:37.538Z,12.36
2018-04-01T00:05:12.359Z,12.25
2018-04-01T00:06:47.805Z,12.00
2018-04-01T00:08:22.237Z,12.12
2018-04-01T00:09:58.063Z,12.31
2018-04-01T00:11:32.534Z,11.89
2018-04-01T00:13:06.867Z,11.86
2018-04-01T00:14:42.173Z,12.17
2018-04-01T00:16:17.202Z,12.24
2018-04-01T00:17:52.754Z,12.47
2018-04-01T00:19:27.364Z,12.54
2018-04-01T00:21:02.136Z,12.59
2018-04-01T00:22:37.373Z,12.36
2018-04-01T00:24:11.859Z,12.20
2018-04-01T00:25:46.390Z,12.40
2018-04-01T00:27:21.225Z,12.58
2018-04-01T00:28:55.592Z,12.23
2018-04-01T00:30:30.598Z,11.90
2018-04-01T00:32:05.076Z,11.62
2018-04-01T00:33:39.761Z,11.35
2018-04-01T00:35:14.431Z,11.29
2018-04-01T00:36:49.628Z,11.50
2018-04-01T00:38:24.276Z,11.57
2018-04-01T00:40:00.002Z,11.51
2018-04-01T00:41:34.705Z,11.52
2018-04-01T00:43:09.196Z,11.26
2018-04-01T00:44:43.758Z,11.41
2018-04-01T00:46:19.599Z,11.43
2018-04-01T00:47:54.008Z,11.25
2018-04-01T00:49:31.929Z,11.01
2018-04-01T00:51:06.521Z,10.89
2018-04-01T00:52:41.408Z,10.80
2018-04-01T00:54:18.297Z,10.58
2018-04-01T00:55:52.958Z,10.31
2018-04-01T00:57:27.293Z,10.15
2018-04-01T00:59:01.712Z,9.90
2018-04-01T01:00:37.694Z,9.89
2018-04-01T01:02:12.178Z,9.91
2018-04-01T01:03:47.388Z,9.81
2018-04-01T01:05:24.722Z,9.74
2018-04-01T01:06:59.128Z,9.61
2018-04-01T01:08:33.934Z,9.51
2018-04-01T01:10:08.742Z,9.42
2018-04-01T01:11:46.277Z,9.42
2018-04-01T01:13:21.009Z,9.58
2018-04-01T01:14:57.057Z,10.03
2018-04-01T01:16:34.529Z,10.47
2018-04-01T01:18:09.056Z,10.88
2018-04-01T01:19:44.345Z,11.06
2018-04-01T01:21:18.639Z,11.24
2018-04-01T01:22:56.076Z,11.39
2018-04-01T01:24:31.038Z,11.42
2018-04-01T01:26:05.474Z,11.44
2018-04-01T01:27:40.964Z,11.19
2018-04-01T01:29:15.354Z,10.88
2018-04-01T01:30:49.687Z,10.47
2018-04-01T01:32:24.389Z,10.12
2018-04-01T01:33:58.732Z,9.78
2018-04-01T01:35:34.125Z,9.54
2018-04-01T01:37:10.374Z,9.27
2018-04-01T01:38:44.969Z,9.14
2018-04-01T01:40:19.243Z,9.16
2018-04-01T01:41:54.511Z,9.17
2018-04-01T01:43:29.890Z,9.15
2018-04-01T01:45:04.528Z,9.19
2018-04-01T01:46:40.040Z,9.32
2018-04-01T01:48:14.514Z,9.42
2018-04-01T01:49:49.702Z,9.59
2018-04-01T01:51:23.855Z,9.62
2018-04-01T01:52:59.922Z,9.49
2018-04-01T01:54:34.871Z,9.33
2018-04-01T01:56:09.608Z,9.20
2018-04-01T01:57:44.186Z,9.19
2018-04-01T01:59:20.702Z,9.17
2018-04-01T02:00:55.839Z,9.06
2018-04-01T02:02:30.217Z,9.03
2018-04-01T02:04:04.918Z,9.12
2018-04-01T02:05:39.234Z,9.32
2018-04-01T02:07:13.800Z,9.25
2018-04-01T02:08:48.252Z,9.18
2018-04-01T02:10:22.543Z,9.06
2018-04-01T02:11:59.422Z,8.94
2018-04-01T02:13:35.254Z,8.92
2018-04-01T02:15:09.402Z,8.96
2018-04-01T02:16:44.142Z,8.90
2018-04-01T02:18:18.666Z,8.89
2018-04-01T02:19:53.065Z,9.11
2018-04-01T02:21:28.029Z,9.34
2018-04-01T02:23:02.359Z,9.51
2018-04-01T02:24:36.705Z,9.92
2018-04-01T02:26:12.044Z,10.40
2018-04-01T02:27:46.278Z,10.71
2018-04-01T02:29:20.484Z,10.76
2018-04-01T02:30:54.733Z,10.79
2018-04-01T02:32:29.310Z,10.95
2018-04-01T02:34:03.883Z,10.98
2018-04-01T02:35:38.270Z,10.87
2018-04-01T02:37:12.646Z,10.57
2018-04-01T02:38:47.370Z,10.11
2018-04-01T02:40:21.755Z,9.73
2018-04-01T02:41:56.896Z,9.42
2018-04-01T02:43:31.187Z,9.08
2018-04-01T02:45:05.943Z,8.79
2018-04-01T02:46:40.693Z,8.59
2018-04-01T02:48:15.761Z,8.56
2018-04-01T02:49:50.076Z,8.53
2018-04-01T02:51:25.108Z,8.63
2018-04-01T02:52:59.773Z,8.72
2018-04-01T02:54:34.524Z,8.87
2018-04-01T02:56:09.136Z,8.88
2018-04-01T02:57:43.898Z,8.85
2018-04-01T02:59:18.025Z,8.89
2018-04-01T03:00:52.669Z,8.92
2018-04-01T03:02:27.489Z,9.03
2018-04-01T03:04:01.857Z,9.04
2018-04-01T03:05:36.039Z,8.93
2018-04-01T03:07:10.907Z,8.86
2018-04-01T03:08:45.015Z,8.83
2018-04-01T03:10:19.296Z,8.87
2018-04-01T03:11:53.797Z,8.95
2018-04-01T03:13:28.929Z,9.08
2018-04-01T03:15:03.189Z,9.38
2018-04-01T03:16:37.689Z,9.69
2018-04-01T03:18:12.418Z,9.76
2018-04-01T03:19:46.355Z,9.53
2018-04-01T03:21:20.871Z,9.72
2018-04-01T03:22:55.820Z,9.95
2018-04-01T03:24:30.874Z,10.48
2018-04-01T03:26:05.773Z,10.91
2018-04-01T03:27:40.209Z,11.25
2018-04-01T03:29:14.501Z,11.39
2018-04-01T03:30:48.623Z,11.43
2018-04-01T03:32:22.815Z,11.52
2018-04-01T03:33:56.815Z,11.44
2018-04-01T03:35:31.066Z,11.26
2018-04-01T03:37:05.382Z,10.90
2018-04-01T03:38:39.432Z,10.87
2018-04-01T03:40:14.673Z,10.87
2018-04-01T03:41:49.703Z,10.61
2018-04-01T03:43:23.678Z,9.75
2018-04-01T03:44:57.686Z,9.83
2018-04-01T03:46:32.005Z,9.68
2018-04-01T03:48:07.074Z,9.29
2018-04-01T03:49:41.276Z,9.03
2018-04-01T03:51:16.157Z,8.74
2018-04-01T03:52:50.085Z,8.60
2018-04-01T03:54:24.335Z,8.54
2018-04-01T03:55:58.593Z,8.53
2018-04-01T03:57:32.672Z,8.55
2018-04-01T03:59:06.872Z,8.53
2018-04-01T04:00:41.365Z,8.58
2018-04-01T04:02:16.447Z,8.57
2018-04-01T04:03:51.245Z,8.77
2018-04-01T04:05:25.373Z,8.90
2018-04-01T04:07:00.361Z,8.98
2018-04-01T04:08:34.553Z,9.08
2018-04-01T04:10:08.814Z,9.13
2018-04-01T04:11:43.406Z,9.14
2018-04-01T04:13:17.690Z,9.26
2018-04-01T04:14:51.923Z,9.33
2018-04-01T04:16:26.049Z,9.31
2018-04-01T04:18:00.460Z,9.19
2018-04-01T04:19:34.598Z,9.22
2018-04-01T04:21:09.087Z,9.15
2018-04-01T04:22:43.222Z,9.03
2018-04-01T04:24:18.435Z,9.05
2018-04-01T04:25:52.551Z,8.98
2018-04-01T04:27:26.597Z,8.93
2018-04-01T04:29:01.266Z,8.80
2018-04-01T04:30:35.988Z,8.86
2018-04-01T04:32:09.898Z,9.00
2018-04-01T04:33:44.644Z,9.18
2018-04-01T04:35:18.607Z,9.22
2018-04-01T04:36:52.921Z,9.21
2018-04-01T04:38:26.820Z,9.23
2018-04-01T04:40:00.765Z,9.31
2018-04-01T04:41:34.714Z,9.46
2018-04-01T04:43:08.994Z,9.58
2018-04-01T04:44:43.626Z,9.67
2018-04-01T04:46:17.697Z,9.80
2018-04-01T04:47:51.964Z,9.91
2018-04-01T04:49:26.049Z,10.01
2018-04-01T04:50:59.984Z,10.10
2018-04-01T04:52:33.857Z,10.17
2018-04-01T04:54:07.721Z,10.32
2018-04-01T04:55:42.330Z,10.49
2018-04-01T04:57:16.249Z,10.61
2018-04-01T04:58:50.256Z,10.73
2018-04-01T05:00:26.033Z,10.77
2018-04-01T05:02:00.452Z,10.76
2018-04-01T05:03:34.426Z,10.95
2018-04-01T05:05:09.186Z,11.00
2018-04-01T05:06:43.203Z,10.97
2018-04-01T05:08:17.368Z,10.59
2018-04-01T05:09:52.096Z,10.15
2018-04-01T05:11:26.207Z,9.89
2018-04-01T05:13:00.923Z,9.70
2018-04-01T05:14:36.186Z,9.65
2018-04-01T05:16:10.427Z,9.61
2018-04-01T05:17:44.513Z,9.41
2018-04-01T05:19:18.703Z,9.35
2018-04-01T05:20:53.711Z,9.32
2018-04-01T05:22:28.639Z,9.26
2018-04-01T05:24:02.848Z,9.47
2018-04-01T05:25:37.081Z,10.00
2018-04-01T05:27:11.114Z,10.26
2018-04-01T05:28:45.177Z,10.24
2018-04-01T05:30:19.321Z,10.41
2018-04-01T05:31:53.597Z,10.80
2018-04-01T05:33:27.975Z,11.12
2018-04-01T05:35:01.995Z,11.23
2018-04-01T05:36:36.034Z,11.15
2018-04-01T05:38:10.034Z,11.13
2018-04-01T05:39:44.533Z,11.30
2018-04-01T05:41:18.787Z,11.40
2018-04-01T05:42:53.048Z,11.43
2018-04-01T05:44:27.848Z,11.39
2018-04-01T05:46:02.709Z,11.45
2018-04-01T05:47:36.735Z,11.37
2018-04-01T05:49:11.770Z,11.54
2018-04-01T05:50:46.866Z,11.55
2018-04-01T05:52:22.329Z,11.46
2018-04-01T05:53:56.995Z,11.51
2018-04-01T05:55:30.956Z,11.33
2018-04-01T05:57:05.137Z,10.78
2018-04-01T05:58:39.760Z,10.77
2018-04-01T06:00:15.325Z,10.77
2018-04-01T06:01:50.036Z,10.57
2018-04-01T06:03:24.327Z,9.96
2018-04-01T06:04:59.162Z,10.00
2018-04-01T06:06:33.299Z,9.56
2018-04-01T06:08:08.290Z,9.34
2018-04-01T06:09:42.810Z,8.97
2018-04-01T06:11:17.525Z,9.22
2018-04-01T06:12:51.642Z,9.23
2018-04-01T06:14:25.739Z,9.09
2018-04-01T06:16:01.462Z,9.01
2018-04-01T06:17:36.366Z,9.12
2018-04-01T06:19:10.920Z,9.16
2018-04-01T06:20:45.321Z,9.00
2018-04-01T06:22:19.775Z,9.31
2018-04-01T06:23:54.622Z,9.05
2018-04-01T06:25:28.800Z,8.98
2018-04-01T06:27:03.391Z,9.02
2018-04-01T06:28:37.710Z,9.05
2018-04-01T06:30:12.804Z,9.17
2018-04-01T06:31:50.767Z,9.16
2018-04-01T06:33:25.323Z,9.30
2018-04-01T06:34:59.757Z,9.29
2018-04-01T06:36:34.503Z,9.38
2018-04-01T06:38:08.725Z,9.53
2018-04-01T06:39:43.042Z,9.43
2018-04-01T06:41:17.448Z,9.18
2018-04-01T06:42:52.359Z,9.06
2018-04-01T06:44:26.876Z,9.07
2018-04-01T06:46:01.827Z,9.10
2018-04-01T06:47:36.244Z,9.22
2018-04-01T06:49:10.866Z,9.12
2018-04-01T06:50:45.207Z,8.79
2018-04-01T06:52:19.611Z,8.87
2018-04-01T06:53:54.749Z,9.19
2018-04-01T06:55:29.385Z,9.12
2018-04-01T06:57:03.903Z,9.31
2018-04-01T06:58:38.179Z,9.58
2018-04-01T07:00:13.060Z,9.69
2018-04-01T07:01:49.615Z,9.81
2018-04-01T07:03:24.018Z,9.82
2018-04-01T07:04:58.521Z,9.84
2018-04-01T07:06:34.602Z,9.84
2018-04-01T07:08:09.391Z,9.82
2018-04-01T07:09:44.018Z,9.59
2018-04-01T07:11:18.289Z,9.78
2018-04-01T07:12:52.900Z,9.52
2018-04-01T07:14:27.465Z,9.80
2018-04-01T07:16:02.058Z,10.18
2018-04-01T07:17:36.455Z,9.92
2018-04-01T07:19:11.527Z,10.06
2018-04-01T07:20:46.238Z,10.33
2018-04-01T07:22:20.567Z,10.48
2018-04-01T07:23:54.783Z,10.46
2018-04-01T07:25:29.043Z,10.42
2018-04-01T07:27:03.953Z,10.41
2018-04-01T07:28:39.193Z,10.28
2018-04-01T07:30:15.415Z,10.16
2018-04-01T07:31:50.123Z,10.15
2018-04-01T07:33:24.832Z,10.21
2018-04-01T07:35:00.244Z,9.74
2018-04-01T07:36:34.736Z,9.53
2018-04-01T07:38:09.233Z,9.54
2018-04-01T07:39:44.010Z,9.72
2018-04-01T07:41:18.486Z,9.84
2018-04-01T07:42:53.041Z,9.92
2018-04-01T07:44:27.430Z,9.72
2018-04-01T07:46:03.502Z,9.93
2018-04-01T07:47:38.663Z,10.04
2018-04-01T07:49:13.161Z,9.60
2018-04-01T07:50:47.769Z,9.77
2018-04-01T07:52:22.594Z,9.92
2018-04-01T07:53:56.866Z,9.93
2018-04-01T07:55:31.939Z,9.75
2018-04-01T07:57:06.768Z,9.65
2018-04-01T07:58:41.792Z,9.62
2018-04-01T08:00:17.320Z,9.83
2018-04-01T08:01:52.089Z,9.92
2018-04-01T08:03:27.054Z,9.84
2018-04-01T08:05:01.631Z,10.04
2018-04-01T08:06:36.056Z,10.08
2018-04-01T08:08:10.769Z,9.96
2018-04-01T08:09:45.529Z,9.88
2018-04-01T08:11:20.168Z,9.89
2018-04-01T08:12:54.544Z,9.81
2018-04-01T08:14:29.774Z,10.01
2018-04-01T08:16:04.978Z,10.01
2018-04-01T08:17:39.560Z,9.84
2018-04-01T08:19:14.457Z,9.69
2018-04-01T08:20:49.862Z,9.63
2018-04-01T08:22:33.864Z,9.62
2018-04-01T08:24:19.490Z,9.62
2018-04-01T08:25:53.758Z,9.44
2018-04-01T08:27:28.383Z,9.47
2018-04-01T08:29:02.820Z,9.52
2018-04-01T08:30:38.150Z,9.62
2018-04-01T08:32:12.938Z,9.72
2018-04-01T08:33:47.749Z,9.61
2018-04-01T08:35:22.939Z,9.58
2018-04-01T08:36:57.326Z,9.38
2018-04-01T08:38:33.111Z,9.13
2018-04-01T08:40:08.589Z,9.11
2018-04-01T08:41:43.004Z,9.23
2018-04-01T08:43:17.457Z,9.40
2018-04-01T08:44:51.890Z,9.31
2018-04-01T08:46:26.840Z,9.04
2018-04-01T08:48:01.165Z,9.02
2018-04-01T08:49:36.222Z,9.11
2018-04-01T08:51:11.344Z,9.11
2018-04-01T08:52:45.700Z,9.11
2018-04-01T08:54:19.973Z,9.15
2018-04-01T08:55:54.311Z,9.32
2018-04-01T08:57:28.498Z,9.52
2018-04-01T08:59:02.908Z,9.64
2018-04-01T09:00:37.694Z,9.78
2018-04-01T09:02:11.959Z,9.91
2018-04-01T09:03:46.408Z,9.81
2018-04-01T09:05:22.087Z,9.86
2018-04-01T09:06:57.093Z,9.81
2018-04-01T09:08:32.992Z,9.65
2018-04-01T09:10:07.340Z,9.59
2018-04-01T09:11:43.594Z,9.55
2018-04-01T09:13:17.836Z,9.43
2018-04-01T09:14:52.322Z,9.31
2018-04-01T09:16:27.503Z,9.41
2018-04-01T09:18:02.136Z,9.22
2018-04-01T09:19:37.205Z,9.04
2018-04-01T09:21:11.694Z,9.00
2018-04-01T09:22:47.411Z,9.09
2018-04-01T09:24:22.279Z,9.19
2018-04-01T09:25:56.624Z,9.29
2018-04-01T09:27:31.140Z,9.43
2018-04-01T09:29:05.684Z,9.48
2018-04-01T09:30:40.830Z,9.47
2018-04-01T09:32:16.081Z,9.46
2018-04-01T09:33:51.125Z,9.30
2018-04-01T09:35:25.568Z,9.16
2018-04-01T09:37:00.267Z,9.18
2018-04-01T09:38:35.338Z,9.21
2018-04-01T09:40:10.586Z,9.23
2018-04-01T09:41:45.774Z,9.28
2018-04-01T09:43:20.433Z,9.38
2018-04-01T09:44:55.682Z,9.40
2018-04-01T09:46:30.251Z,9.23
2018-04-01T09:48:04.876Z,9.27
2018-04-01T09:49:39.309Z,9.35
2018-04-01T09:51:13.507Z,9.33
2018-04-01T09:52:47.977Z,9.35
2018-04-01T09:54:22.284Z,9.31
2018-04-01T09:55:57.542Z,9.36
2018-04-01T09:57:31.853Z,9.43
2018-04-01T09:59:06.286Z,9.42
2018-04-01T10:00:50.581Z,9.34
2018-04-01T10:02:27.754Z,9.33
2018-04-01T10:04:04.915Z,9.39
2018-04-01T10:05:41.934Z,9.33
2018-04-01T10:07:20.754Z,9.37
2018-04-01T10:08:58.391Z,9.40
2018-04-01T10:10:36.414Z,9.54
2018-04-01T10:12:14.829Z,9.58
2018-04-01T10:13:53.376Z,9.66
2018-04-01T10:15:31.798Z,9.45
2018-04-01T10:17:09.266Z,9.33
2018-04-01T10:18:46.805Z,9.20
2018-04-01T10:20:25.757Z,9.14
2018-04-01T10:22:05.225Z,9.17
2018-04-01T10:23:42.380Z,9.26
2018-04-01T10:25:20.390Z,9.35
2018-04-01T10:26:57.688Z,9.43
2018-04-01T10:28:35.497Z,9.60
2018-04-01T10:30:15.545Z,9.66
2018-04-01T10:31:53.307Z,9.65
2018-04-01T10:33:30.946Z,9.78
2018-04-01T10:35:09.840Z,9.83
2018-04-01T10:36:47.627Z,9.72
2018-04-01T10:38:24.905Z,9.63
2018-04-01T10:40:03.939Z,9.66
2018-04-01T10:41:41.982Z,9.65
2018-04-01T10:43:19.149Z,9.53
2018-04-01T10:44:56.278Z,9.52
2018-04-01T10:46:34.593Z,9.65
2018-04-01T10:48:12.463Z,9.71
2018-04-01T10:49:49.468Z,9.63
2018-04-01T10:51:29.901Z,9.55
2018-04-01T10:53:07.027Z,9.49
2018-04-01T10:54:43.193Z,9.25
2018-04-01T10:56:18.223Z,8.99
2018-04-01T10:57:55.083Z,8.89
2018-04-01T10:59:29.482Z,8.95
2018-04-01T11:01:05.547Z,9.09
2018-04-01T11:02:40.892Z,9.25
2018-04-01T11:04:15.356Z,9.40
2018-04-01T11:05:49.887Z,9.51
2018-04-01T11:07:25.267Z,9.61
2018-04-01T11:08:59.430Z,9.71
2018-04-01T11:10:33.966Z,9.78
2018-04-01T11:12:08.230Z,9.88
2018-04-01T11:13:43.537Z,9.91
2018-04-01T11:15:18.220Z,9.87
2018-04-01T11:16:52.882Z,9.93
2018-04-01T11:18:27.816Z,9.99
2018-04-01T11:20:02.633Z,9.92
2018-04-01T11:21:36.851Z,9.66
2018-04-01T11:23:11.936Z,9.56
2018-04-01T11:24:46.499Z,9.55
2018-04-01T11:26:20.973Z,9.58
2018-04-01T11:27:55.839Z,9.57
2018-04-01T11:29:30.082Z,9.49
2018-04-01T11:31:04.629Z,9.54
2018-04-01T11:32:39.193Z,9.66
2018-04-01T11:34:13.424Z,9.79
2018-04-01T11:35:47.841Z,9.75
2018-04-01T11:37:22.403Z,9.79
2018-04-01T11:38:56.587Z,9.89
2018-04-01T11:40:31.614Z,10.00
2018-04-01T11:42:07.202Z,10.00
2018-04-01T11:43:42.003Z,9.99
2018-04-01T11:45:19.519Z,9.95
2018-04-01T11:46:54.112Z,9.84
2018-04-01T11:48:29.447Z,9.81
2018-04-01T11:50:03.999Z,9.76
2018-04-01T11:51:38.201Z,9.88
2018-04-01T11:53:12.600Z,10.04
2018-04-01T11:54:48.047Z,10.13
2018-04-01T11:56:22.559Z,10.19
2018-04-01T11:57:59.941Z,10.24
2018-04-01T11:59:35.504Z,10.28
2018-04-01T12:01:10.215Z,10.27
2018-04-01T12:02:44.773Z,10.47
2018-04-01T12:04:19.170Z,10.36
2018-04-01T12:05:53.638Z,10.42
2018-04-01T12:07:28.093Z,10.66
2018-04-01T12:09:02.836Z,10.68
2018-04-01T12:10:37.047Z,10.77
2018-04-01T12:12:12.048Z,10.83
2018-04-01T12:13:46.278Z,10.73
2018-04-01T12:15:21.148Z,10.71
2018-04-01T12:16:56.105Z,10.84
2018-04-01T12:18:31.452Z,10.84
2018-04-01T12:20:06.720Z,10.92
2018-04-01T12:21:41.742Z,10.92
2018-04-01T12:23:16.399Z,11.04
2018-04-01T12:24:50.713Z,11.21
2018-04-01T12:26:25.194Z,11.18
2018-04-01T12:27:59.874Z,11.21
2018-04-01T12:29:34.116Z,11.21
2018-04-01T12:31:08.776Z,11.10
2018-04-01T12:32:44.202Z,11.28
2018-04-01T12:34:20.089Z,11.38
2018-04-01T12:35:54.545Z,11.43
2018-04-01T12:37:28.746Z,11.41
2018-04-01T12:39:03.210Z,11.43
2018-04-01T12:40:37.793Z,11.42
2018-04-01T12:42:11.911Z,11.33
2018-04-01T12:43:46.171Z,11.40
2018-04-01T12:45:20.662Z,11.54
2018-04-01T12:46:55.825Z,11.64
2018-04-01T12:48:31.577Z,11.75
2018-04-01T12:50:06.976Z,11.86
2018-04-01T12:51:41.090Z,11.89
2018-04-01T12:53:18.506Z,11.79
2018-04-01T12:54:52.751Z,11.61
2018-04-01T12:56:27.013Z,11.31
2018-04-01T12:58:01.225Z,11.18
2018-04-01T12:59:38.840Z,11.12
2018-04-01T13:01:16.455Z,11.11
2018-04-01T13:02:51.904Z,11.13
2018-04-01T13:04:26.744Z,11.24
2018-04-01T13:06:01.363Z,11.28
2018-04-01T13:07:35.598Z,11.30
2018-04-01T13:09:10.730Z,11.28
2018-04-01T13:10:45.354Z,11.21
2018-04-01T13:12:20.856Z,11.23
2018-04-01T13:13:55.098Z,11.10
2018-04-01T13:15:30.004Z,11.11
2018-04-01T13:17:06.157Z,11.30
2018-04-01T13:18:42.926Z,11.47
2018-04-01T13:21:48.596Z,11.82
2018-04-01T13:23:23.337Z,11.99
2018-04-01T13:24:59.967Z,12.14
2018-04-01T13:26:35.714Z,12.25
2018-04-01T13:28:12.487Z,12.27
2018-04-01T13:29:47.230Z,12.23
2018-04-01T13:31:23.602Z,12.31
2018-04-01T13:32:58.125Z,12.36
2018-04-01T13:34:32.294Z,12.34
2018-04-01T13:36:07.932Z,12.34
2018-04-01T13:38:03.510Z,12.36
2018-04-01T13:39:46.044Z,12.52
2018-04-01T13:41:22.067Z,12.52
2018-04-01T13:42:57.852Z,12.53
2018-04-01T13:46:13.971Z,12.69
2018-04-01T13:47:48.361Z,12.72
2018-04-01T13:49:23.906Z,12.63
2018-04-01T13:51:15.838Z,12.50
2018-04-01T13:52:50.454Z,12.51
2018-04-01T13:54:24.705Z,12.53
2018-04-01T13:55:59.268Z,12.50
2018-04-01T13:57:33.779Z,12.32
2018-04-01T13:59:08.180Z,12.19
2018-04-01T14:00:43.144Z,12.18
2018-04-01T14:02:17.850Z,12.13
2018-04-01T14:03:52.123Z,12.09
2018-04-01T14:05:26.491Z,12.11
2018-04-01T14:07:03.338Z,12.16
2018-04-01T14:08:37.879Z,12.23
2018-04-01T14:10:12.348Z,12.27
2018-04-01T14:11:46.694Z,12.42
2018-04-01T14:13:21.954Z,12.55
2018-04-01T14:14:56.549Z,12.57
2018-04-01T14:16:31.843Z,12.63
2018-04-01T14:18:08.451Z,12.60
2018-04-01T14:19:42.744Z,12.68
2018-04-01T14:21:17.576Z,12.44
2018-04-01T14:22:52.124Z,11.87
2018-04-01T14:24:27.212Z,11.68
2018-04-01T14:26:02.538Z,11.39
2018-04-01T14:27:37.163Z,11.14
2018-04-01T14:29:11.714Z,11.15
2018-04-01T14:30:48.021Z,11.18
2018-04-01T14:32:22.547Z,11.25
2018-04-01T14:33:58.774Z,11.34
2018-04-01T14:35:33.228Z,11.47
2018-04-01T14:37:07.596Z,11.41
2018-04-01T14:38:42.647Z,11.14
2018-04-01T14:40:18.465Z,10.93
2018-04-01T14:41:52.816Z,10.47
2018-04-01T14:43:27.752Z,10.24
2018-04-01T14:45:02.772Z,10.17
2018-04-01T14:46:38.585Z,10.11
2018-04-01T14:48:12.770Z,10.03
2018-04-01T14:49:47.707Z,9.99
2018-04-01T14:51:22.020Z,9.72
2018-04-01T14:52:56.511Z,9.70
2018-04-01T14:54:31.511Z,9.67
2018-04-01T14:56:05.965Z,9.67
2018-04-01T14:57:41.080Z,9.47
2018-04-01T14:59:15.575Z,9.28
2018-04-01T15:00:51.133Z,9.27
2018-04-01T15:02:25.352Z,9.35
2018-04-01T15:03:59.641Z,9.44
2018-04-01T15:05:33.911Z,9.50
2018-04-01T15:07:08.408Z,9.51
2018-04-01T15:08:43.602Z,9.58
2018-04-01T15:10:19.164Z,9.66
2018-04-01T15:11:53.811Z,9.71
2018-04-01T15:13:29.132Z,9.61
2018-04-01T15:15:03.435Z,9.48
2018-04-01T15:16:39.276Z,9.50
2018-04-01T15:18:14.202Z,9.50
2018-04-01T15:19:51.797Z,9.45
2018-04-01T15:21:25.924Z,9.44
2018-04-01T15:23:00.195Z,9.42
2018-04-01T15:24:34.835Z,9.38
2018-04-01T15:26:09.251Z,9.39
2018-04-01T15:27:43.473Z,9.23
2018-04-01T15:29:17.754Z,9.17
2018-04-01T15:30:52.358Z,9.16
2018-04-01T15:32:26.720Z,9.15
2018-04-01T15:34:01.079Z,9.22
2018-04-01T15:35:35.341Z,9.23
2018-04-01T15:37:10.349Z,9.21
2018-04-01T15:38:46.355Z,9.23
2018-04-01T15:40:20.755Z,9.30
2018-04-01T15:41:55.546Z,9.39
2018-04-01T15:43:29.703Z,9.51
2018-04-01T15:45:03.973Z,9.75
2018-04-01T15:46:38.533Z,9.86
2018-04-01T15:48:13.623Z,9.76
2018-04-01T15:49:48.366Z,9.58
2018-04-01T15:51:22.688Z,9.52
2018-04-01T15:52:56.855Z,9.46
2018-04-01T15:54:31.585Z,9.37
2018-04-01T15:56:05.672Z,9.36
2018-04-01T15:57:39.850Z,9.33
2018-04-01T15:59:14.025Z,9.39
2018-04-01T16:00:48.548Z,9.36
2018-04-01T16:02:22.813Z,9.27
2018-04-01T16:03:57.104Z,9.19
2018-04-01T16:05:31.226Z,9.08
2018-04-01T16:07:05.353Z,9.02
2018-04-01T16:08:40.445Z,9.09
2018-04-01T16:10:14.636Z,9.12
2018-04-01T16:11:50.113Z,8.91
2018-04-01T16:13:24.274Z,8.91
2018-04-01T16:14:58.501Z,8.87
2018-04-01T16:16:37.296Z,8.89
2018-04-01T16:18:12.629Z,8.93
2018-04-01T16:19:47.883Z,9.07
2018-04-01T16:21:22.238Z,9.00
2018-04-01T16:22:56.452Z,9.04
2018-04-01T16:24:31.103Z,9.15
2018-04-01T16:26:06.225Z,9.09
2018-04-01T16:27:43.270Z,9.02
2018-04-01T16:29:17.611Z,9.06
2018-04-01T16:30:52.695Z,9.04
2018-04-01T16:32:27.674Z,8.97
2018-04-01T16:34:02.333Z,8.96
2018-04-01T16:35:38.477Z,8.97
2018-04-01T16:37:15.166Z,8.94
2018-04-01T16:38:50.184Z,9.06
2018-04-01T16:40:25.591Z,9.19
2018-04-01T16:42:00.583Z,9.26
2018-04-01T16:43:35.924Z,9.17
2018-04-01T16:45:13.556Z,9.23
2018-04-01T16:47:04.905Z,8.97
2018-04-01T16:48:39.703Z,8.89
2018-04-01T16:50:46.621Z,8.98
2018-04-01T16:52:21.352Z,8.89
2018-04-01T16:53:56.218Z,8.73
2018-04-01T16:55:31.068Z,8.80
2018-04-01T16:57:06.948Z,8.82
2018-04-01T16:58:41.397Z,8.99
2018-04-01T17:00:17.260Z,9.10
2018-04-01T17:01:51.594Z,9.14
2018-04-01T17:03:27.190Z,9.06
2018-04-01T17:05:01.466Z,9.01
2018-04-01T17:06:35.944Z,8.95
2018-04-01T17:08:10.075Z,8.97
2018-04-01T17:09:44.210Z,9.04
2018-04-01T17:11:18.491Z,9.05
2018-04-01T17:12:53.845Z,9.10
2018-04-01T17:14:28.091Z,9.15
2018-04-01T17:16:02.685Z,9.29
2018-04-01T17:17:36.961Z,9.29
2018-04-01T17:19:11.434Z,9.09
2018-04-01T17:20:45.832Z,9.05
2018-04-01T17:22:20.530Z,9.12
2018-04-01T17:23:54.659Z,9.18
2018-04-01T17:25:29.044Z,9.20
2018-04-01T17:27:03.336Z,9.01
2018-04-01T17:28:37.494Z,8.90
2018-04-01T17:30:11.712Z,8.97
2018-04-01T17:31:46.920Z,8.92
2018-04-01T17:33:21.352Z,8.87
2018-04-01T17:34:56.377Z,8.89
2018-04-01T17:36:31.379Z,8.86
2018-04-01T17:38:05.771Z,8.82
2018-04-01T17:39:40.729Z,8.89
2018-04-01T17:41:15.081Z,9.01
2018-04-01T17:42:49.291Z,9.14
2018-04-01T17:44:23.701Z,9.16
2018-04-01T17:45:58.258Z,9.25
2018-04-01T17:47:32.459Z,9.18
2018-04-01T17:49:06.655Z,9.15
2018-04-01T17:50:40.955Z,9.29
2018-04-01T17:52:15.166Z,9.39
2018-04-01T17:53:49.404Z,9.40
2018-04-01T17:55:24.357Z,9.47
2018-04-01T17:56:59.525Z,9.55
2018-04-01T17:58:33.777Z,9.66
2018-04-01T18:00:07.960Z,9.73
2018-04-01T18:01:42.805Z,9.65
2018-04-01T18:03:17.455Z,9.66
2018-04-01T18:04:52.486Z,9.65
2018-04-01T18:06:28.179Z,9.64
2018-04-01T18:08:02.507Z,9.61
2018-04-01T18:09:37.872Z,9.75
2018-04-01T18:11:12.098Z,9.92
2018-04-01T18:12:46.252Z,10.01
2018-04-01T18:14:20.741Z,10.14
2018-04-01T18:15:55.476Z,10.16
2018-04-01T18:17:29.641Z,10.18
2018-04-01T18:19:04.587Z,10.30
2018-04-01T18:20:38.714Z,10.21
2018-04-01T18:22:13.337Z,10.30
2018-04-01T18:23:47.671Z,10.35
2018-04-01T18:25:21.903Z,10.37
2018-04-01T18:26:56.915Z,10.31
2018-04-01T18:28:32.125Z,10.32
2018-04-01T18:30:06.435Z,10.31
2018-04-01T18:31:41.083Z,10.31
2018-04-01T18:33:15.333Z,10.41
2018-04-01T18:34:49.821Z,10.61
2018-04-01T18:36:24.020Z,10.74
2018-04-01T18:37:58.355Z,10.82
2018-04-01T18:39:32.538Z,10.89
2018-04-01T18:41:07.046Z,10.96
2018-04-01T18:42:41.373Z,10.98
2018-04-01T18:44:16.477Z,10.88
2018-04-01T18:45:51.159Z,10.66
2018-04-01T18:47:25.664Z,10.52
2018-04-01T18:48:59.824Z,10.20
2018-04-01T18:50:34.656Z,10.02
2018-04-01T18:52:09.528Z,9.93
2018-04-01T18:53:44.285Z,10.00
2018-04-01T18:55:18.500Z,10.10
2018-04-01T18:56:53.630Z,10.13
2018-04-01T18:58:27.891Z,10.16
2018-04-01T19:00:02.471Z,10.19
2018-04-01T19:01:36.769Z,10.25
2018-04-01T19:03:11.005Z,10.35
2018-04-01T19:04:45.584Z,10.46
2018-04-01T19:06:20.796Z,10.58
2018-04-01T19:07:54.965Z,10.58
2018-04-01T19:09:29.842Z,10.47
2018-04-01T19:11:04.053Z,10.41
2018-04-01T19:12:38.393Z,10.42
2018-04-01T19:14:12.616Z,10.42
2018-04-01T19:15:46.870Z,10.47
2018-04-01T19:17:23.838Z,10.47
2018-04-01T19:19:00.889Z,10.68
2018-04-01T19:20:37.800Z,10.82
2018-04-01T19:22:14.970Z,10.92
2018-04-01T19:23:52.339Z,10.95
2018-04-01T19:25:29.372Z,11.03
2018-04-01T19:27:06.384Z,10.98
2018-04-01T19:28:43.306Z,11.03
2018-04-01T19:30:21.246Z,10.96
2018-04-01T19:31:59.120Z,10.89
2018-04-01T19:33:36.223Z,10.76
2018-04-01T19:35:13.430Z,10.72
2018-04-01T19:36:50.745Z,10.55
2018-04-01T19:38:27.916Z,10.53
2018-04-01T19:40:05.159Z,10.58
2018-04-01T19:41:42.857Z,10.52
2018-04-01T19:43:20.745Z,10.54
2018-04-01T19:44:58.765Z,10.60
2018-04-01T19:46:36.024Z,10.65
2018-04-01T19:48:13.787Z,10.76
2018-04-01T19:49:51.421Z,10.75
2018-04-01T19:51:29.279Z,10.86
2018-04-01T19:53:06.644Z,10.83
2018-04-01T19:54:43.834Z,10.83
2018-04-01T19:56:22.087Z,10.72
2018-04-01T19:57:59.092Z,10.49
2018-04-01T19:59:36.290Z,10.09
2018-04-01T20:01:13.717Z,10.06
2018-04-01T20:02:51.330Z,10.30
2018-04-01T20:04:30.334Z,10.49
2018-04-01T20:06:07.491Z,10.52
2018-04-01T20:07:44.611Z,10.66
2018-04-01T20:09:22.117Z,10.50
2018-04-01T20:10:59.043Z,10.73
2018-04-01T20:12:36.124Z,10.80
2018-04-01T20:14:13.166Z,10.88
2018-04-01T20:15:51.316Z,10.98
2018-04-01T20:17:28.906Z,10.90
2018-04-01T20:19:05.941Z,10.90
2018-04-01T20:20:42.923Z,10.91
2018-04-01T20:22:19.912Z,10.82
2018-04-01T20:23:58.590Z,10.88
2018-04-01T20:25:36.208Z,10.88
2018-04-01T20:27:13.528Z,10.79
2018-04-01T20:28:50.928Z,10.78
2018-04-01T20:30:39.315Z,10.44
2018-04-01T20:32:16.127Z,10.32
2018-04-01T20:33:53.207Z,10.35
2018-04-01T20:35:30.704Z,9.86
2018-04-01T20:37:08.051Z,9.62
2018-04-01T20:38:45.100Z,9.47
2018-04-01T20:40:22.549Z,9.50
2018-04-01T20:41:59.606Z,9.51
2018-04-01T20:43:36.942Z,9.50
2018-04-01T20:45:14.975Z,9.36
2018-04-01T20:46:52.562Z,9.31
2018-04-01T20:48:29.477Z,9.23
2018-04-01T20:50:06.467Z,9.21
2018-04-01T20:51:44.549Z,9.15
2018-04-01T20:53:22.169Z,9.23